sensor_id;sensor_type;location;lat;lon;timestamp;P1;durP1;ratioP1;P2;durP2;ratioP2
15504;SDS011;7854;52.184;5.942;2023-05-09T00:03:14;157;;;57;;
15504;SDS011;7854;52.184;5.942;2023-05-09T00:04:57;136;;;55;;
15504;SDS011;7854;52.184;5.942;2023-05-09T00:07:12;144;;;58;;
15504;SDS011;7854;52.184;5.942;2023-05-09T00:09:25;90;;;45;;
15504;SDS011;7854;52.184;5.942;2023-05-09T00:11:40;89;;;42;;
15504;SDS011;7854;52.184;5.942;2023-05-09T00:13:54;139;;;57;;
15504;SDS011;7854;52.184;5.942;2023-05-09T00:16:09;167;;;60;;
15504;SDS011;7854;52.184;5.942;2023-05-09T00:18:23;127;;;56;;
15504;SDS011;7854;52.184;5.942;2023-05-09T00:20:38;107;;;48;;
15504;SDS011;7854;52.184;5.942;2023-05-09T00:22:57;114;;;50;;
15504;SDS011;7854;52.184;5.942;2023-05-09T00:25:07;173;;;68;;
15504;SDS011;7854;52.184;5.942;2023-05-09T00:27:21;133;;;57;;
15504;SDS011;7854;52.184;5.942;2023-05-09T00:29:36;120;;;53;;
15504;SDS011;7854;52.184;5.942;2023-05-09T00:31:50;147;;;59;;
15504;SDS011;7854;52.184;5.942;2023-05-09T00:34:05;118;;;56;;
15504;SDS011;7854;52.184;5.942;2023-05-09T00:36:19;115;;;52;;
15504;SDS011;7854;52.184;5.942;2023-05-09T00:38:33;185;;;63;;
15504;SDS011;7854;52.184;5.942;2023-05-09T00:40:48;168;;;61;;
15504;SDS011;7854;52.184;5.942;2023-05-09T00:43:02;117;;;53;;
15504;SDS011;7854;52.184;5.942;2023-05-09T00:45:17;109;;;51;;
15504;SDS011;7854;52.184;5.942;2023-05-09T00:47:32;134;;;57;;
15504;SDS011;7854;52.184;5.942;2023-05-09T00:49:45;98;;;48;;
15504;SDS011;7854;52.184;5.942;2023-05-09T00:52:00;150;;;55;;
15504;SDS011;7854;52.184;5.942;2023-05-09T00:54:15;136;;;55;;
15504;SDS011;7854;52.184;5.942;2023-05-09T00:56:29;111;;;52;;
15504;SDS011;7854;52.184;5.942;2023-05-09T00:58:43;122;;;53;;
15504;SDS011;7854;52.184;5.942;2023-05-09T01:00:58;119;;;52;;
15504;SDS011;7854;52.184;5.942;2023-05-09T01:03:12;106;;;49;;
15504;SDS011;7854;52.184;5.942;2023-05-09T01:05:28;94;;;44;;
15504;SDS011;7854;52.184;5.942;2023-05-09T01:07:42;100;;;47;;
15504;SDS011;7854;52.184;5.942;2023-05-09T01:09:58;103;;;48;;
15504;SDS011;7854;52.184;5.942;2023-05-09T01:12:12;163;;;58;;
15504;SDS011;7854;52.184;5.942;2023-05-09T01:14:28;169;;;57;;
15504;SDS011;7854;52.184;5.942;2023-05-09T01:16:40;138;;;54;;
15504;SDS011;7854;52.184;5.942;2023-05-09T01:18:54;113;;;50;;
15504;SDS011;7854;52.184;5.942;2023-05-09T01:21:09;103;;;50;;
15504;SDS011;7854;52.184;5.942;2023-05-09T01:23:32;160;;;63;;
15504;SDS011;7854;52.184;5.942;2023-05-09T01:25:42;144;;;59;;
15504;SDS011;7854;52.184;5.942;2023-05-09T01:27:53;125;;;53;;
15504;SDS011;7854;52.184;5.942;2023-05-09T01:30:06;122;;;53;;
15504;SDS011;7854;52.184;5.942;2023-05-09T01:32:21;127;;;56;;
15504;SDS011;7854;52.184;5.942;2023-05-09T01:34:34;122;;;53;;
15504;SDS011;7854;52.184;5.942;2023-05-09T01:36:49;171;;;61;;
15504;SDS011;7854;52.184;5.942;2023-05-09T01:39:04;247;;;72;;
15504;SDS011;7854;52.184;5.942;2023-05-09T01:41:18;106;;;50;;
15504;SDS011;7854;52.184;5.942;2023-05-09T01:43:32;101;;;51;;
15504;SDS011;7854;52.184;5.942;2023-05-09T01:45:47;119;;;51;;
15504;SDS011;7854;52.184;5.942;2023-05-09T01:48:00;125;;;52;;
15504;SDS011;7854;52.184;5.942;2023-05-09T01:50:15;118;;;50;;
15504;SDS011;7854;52.184;5.942;2023-05-09T01:52:29;121;;;50;;
15504;SDS011;7854;52.184;5.942;2023-05-09T01:54:43;112;;;51;;
15504;SDS011;7854;52.184;5.942;2023-05-09T01:56:58;114;;;50;;
15504;SDS011;7854;52.184;5.942;2023-05-09T01:59:12;180;;;62;;
15504;SDS011;7854;52.184;5.942;2023-05-09T02:01:27;164;;;61;;
15504;SDS011;7854;52.184;5.942;2023-05-09T02:03:42;149;;;58;;
15504;SDS011;7854;52.184;5.942;2023-05-09T02:05:56;106;;;51;;
15504;SDS011;7854;52.184;5.942;2023-05-09T02:08:10;133;;;58;;
15504;SDS011;7854;52.184;5.942;2023-05-09T02:10:25;112;;;53;;
15504;SDS011;7854;52.184;5.942;2023-05-09T02:12:39;154;;;62;;
15504;SDS011;7854;52.184;5.942;2023-05-09T02:14:53;146;;;59;;
15504;SDS011;7854;52.184;5.942;2023-05-09T02:17:08;136;;;59;;
15504;SDS011;7854;52.184;5.942;2023-05-09T02:19:22;136;;;58;;
15504;SDS011;7854;52.184;5.942;2023-05-09T02:21:37;200;;;67;;
15504;SDS011;7854;52.184;5.942;2023-05-09T02:23:51;128;;;54;;
15504;SDS011;7854;52.184;5.942;2023-05-09T02:26:06;153;;;58;;
15504;SDS011;7854;52.184;5.942;2023-05-09T02:28:20;134;;;59;;
15504;SDS011;7854;52.184;5.942;2023-05-09T02:30:36;122;;;57;;
15504;SDS011;7854;52.184;5.942;2023-05-09T02:32:50;114;;;49;;
15504;SDS011;7854;52.184;5.942;2023-05-09T02:35:04;217;;;65;;
15504;SDS011;7854;52.184;5.942;2023-05-09T02:37:18;132;;;56;;
15504;SDS011;7854;52.184;5.942;2023-05-09T02:39:32;173;;;60;;
15504;SDS011;7854;52.184;5.942;2023-05-09T02:41:47;123;;;53;;
15504;SDS011;7854;52.184;5.942;2023-05-09T02:44:01;110;;;51;;
15504;SDS011;7854;52.184;5.942;2023-05-09T02:46:16;134;;;55;;
15504;SDS011;7854;52.184;5.942;2023-05-09T02:48:30;112;;;50;;
15504;SDS011;7854;52.184;5.942;2023-05-09T02:50:45;122;;;54;;
15504;SDS011;7854;52.184;5.942;2023-05-09T02:52:59;107;;;50;;
15504;SDS011;7854;52.184;5.942;2023-05-09T02:55:14;182;;;62;;
15504;SDS011;7854;52.184;5.942;2023-05-09T02:57:28;121;;;50;;
15504;SDS011;7854;52.184;5.942;2023-05-09T02:59:42;157;;;60;;
15504;SDS011;7854;52.184;5.942;2023-05-09T03:01:57;113;;;50;;
15504;SDS011;7854;52.184;5.942;2023-05-09T03:04:11;136;;;58;;
15504;SDS011;7854;52.184;5.942;2023-05-09T03:06:26;131;;;52;;
15504;SDS011;7854;52.184;5.942;2023-05-09T03:08:40;155;;;53;;
15504;SDS011;7854;52.184;5.942;2023-05-09T03:10:55;167;;;60;;
15504;SDS011;7854;52.184;5.942;2023-05-09T03:13:09;130;;;56;;
15504;SDS011;7854;52.184;5.942;2023-05-09T03:15:24;189;;;57;;
15504;SDS011;7854;52.184;5.942;2023-05-09T03:17:38;112;;;51;;
15504;SDS011;7854;52.184;5.942;2023-05-09T03:19:52;131;;;54;;
15504;SDS011;7854;52.184;5.942;2023-05-09T03:22:07;123;;;50;;
15504;SDS011;7854;52.184;5.942;2023-05-09T03:24:21;102;;;48;;
15504;SDS011;7854;52.184;5.942;2023-05-09T03:26:35;131;;;50;;
15504;SDS011;7854;52.184;5.942;2023-05-09T03:28:50;117;;;49;;
15504;SDS011;7854;52.184;5.942;2023-05-09T03:31:05;171;;;58;;
15504;SDS011;7854;52.184;5.942;2023-05-09T03:33:19;113;;;50;;
15504;SDS011;7854;52.184;5.942;2023-05-09T03:35:33;108;;;52;;
15504;SDS011;7854;52.184;5.942;2023-05-09T03:37:48;127;;;51;;
15504;SDS011;7854;52.184;5.942;2023-05-09T03:40:03;206;;;66;;
15504;SDS011;7854;52.184;5.942;2023-05-09T03:42:16;109;;;49;;
15504;SDS011;7854;52.184;5.942;2023-05-09T03:44:31;115;;;50;;
15504;SDS011;7854;52.184;5.942;2023-05-09T03:46:46;104;;;46;;
15504;SDS011;7854;52.184;5.942;2023-05-09T03:49:00;131;;;53;;
15504;SDS011;7854;52.184;5.942;2023-05-09T03:51:15;146;;;56;;
15504;SDS011;7854;52.184;5.942;2023-05-09T03:53:29;118;;;50;;
15504;SDS011;7854;52.184;5.942;2023-05-09T03:55:44;126;;;51;;
15504;SDS011;7854;52.184;5.942;2023-05-09T03:57:58;127;;;52;;
15504;SDS011;7854;52.184;5.942;2023-05-09T04:00:13;119;;;51;;
15504;SDS011;7854;52.184;5.942;2023-05-09T04:02:27;148;;;55;;
15504;SDS011;7854;52.184;5.942;2023-05-09T04:04:41;141;;;55;;
15504;SDS011;7854;52.184;5.942;2023-05-09T04:06:56;143;;;52;;
15504;SDS011;7854;52.184;5.942;2023-05-09T04:09:10;105;;;46;;
15504;SDS011;7854;52.184;5.942;2023-05-09T04:11:24;136;;;57;;
15504;SDS011;7854;52.184;5.942;2023-05-09T04:13:38;162;;;62;;
15504;SDS011;7854;52.184;5.942;2023-05-09T04:15:53;113;;;49;;
15504;SDS011;7854;52.184;5.942;2023-05-09T04:18:07;158;;;58;;
15504;SDS011;7854;52.184;5.942;2023-05-09T04:20:21;149;;;54;;
15504;SDS011;7854;52.184;5.942;2023-05-09T04:22:36;145;;;53;;
15504;SDS011;7854;52.184;5.942;2023-05-09T04:24:50;127;;;51;;
15504;SDS011;7854;52.184;5.942;2023-05-09T04:27:04;121;;;46;;
15504;SDS011;7854;52.184;5.942;2023-05-09T04:29:19;169;;;57;;
15504;SDS011;7854;52.184;5.942;2023-05-09T04:31:33;129;;;53;;
15504;SDS011;7854;52.184;5.942;2023-05-09T04:33:48;153;;;55;;
15504;SDS011;7854;52.184;5.942;2023-05-09T04:36:02;127;;;50;;
15504;SDS011;7854;52.184;5.942;2023-05-09T04:38:17;101;;;47;;
15504;SDS011;7854;52.184;5.942;2023-05-09T04:40:31;132;;;50;;
15504;SDS011;7854;52.184;5.942;2023-05-09T04:42:46;123;;;51;;
15504;SDS011;7854;52.184;5.942;2023-05-09T04:45:00;185;;;59;;
15504;SDS011;7854;52.184;5.942;2023-05-09T04:47:15;119;;;49;;
15504;SDS011;7854;52.184;5.942;2023-05-09T04:49:29;109;;;47;;
15504;SDS011;7854;52.184;5.942;2023-05-09T04:51:44;130;;;53;;
15504;SDS011;7854;52.184;5.942;2023-05-09T04:53:58;121;;;50;;
15504;SDS011;7854;52.184;5.942;2023-05-09T04:56:12;115;;;48;;
15504;SDS011;7854;52.184;5.942;2023-05-09T04:58:27;102;;;45;;
15504;SDS011;7854;52.184;5.942;2023-05-09T05:00:41;116;;;49;;
15504;SDS011;7854;52.184;5.942;2023-05-09T05:02:55;143;;;55;;
15504;SDS011;7854;52.184;5.942;2023-05-09T05:05:09;148;;;53;;
15504;SDS011;7854;52.184;5.942;2023-05-09T05:07:24;129;;;49;;
15504;SDS011;7854;52.184;5.942;2023-05-09T05:09:38;138;;;54;;
15504;SDS011;7854;52.184;5.942;2023-05-09T05:11:52;114;;;50;;
15504;SDS011;7854;52.184;5.942;2023-05-09T05:14:07;157;;;55;;
15504;SDS011;7854;52.184;5.942;2023-05-09T05:16:21;94;;;42;;
15504;SDS011;7854;52.184;5.942;2023-05-09T05:18:36;129;;;50;;
15504;SDS011;7854;52.184;5.942;2023-05-09T05:20:51;106;;;43;;
15504;SDS011;7854;52.184;5.942;2023-05-09T05:23:05;121;;;50;;
15504;SDS011;7854;52.184;5.942;2023-05-09T05:25:19;92;;;46;;
15504;SDS011;7854;52.184;5.942;2023-05-09T05:27:34;90;;;41;;
15504;SDS011;7854;52.184;5.942;2023-05-09T05:29:48;95;;;43;;
15504;SDS011;7854;52.184;5.942;2023-05-09T05:32:03;109;;;45;;
15504;SDS011;7854;52.184;5.942;2023-05-09T05:34:17;111;;;44;;
15504;SDS011;7854;52.184;5.942;2023-05-09T05:36:32;103;;;46;;
15504;SDS011;7854;52.184;5.942;2023-05-09T05:38:46;99;;;44;;
15504;SDS011;7854;52.184;5.942;2023-05-09T05:41:01;110;;;44;;
15504;SDS011;7854;52.184;5.942;2023-05-09T05:43:15;96;;;43;;
15504;SDS011;7854;52.184;5.942;2023-05-09T05:45:30;118;;;47;;
15504;SDS011;7854;52.184;5.942;2023-05-09T05:47:44;105;;;44;;
15504;SDS011;7854;52.184;5.942;2023-05-09T05:49:58;93;;;43;;
15504;SDS011;7854;52.184;5.942;2023-05-09T05:52:14;99;;;42;;
15504;SDS011;7854;52.184;5.942;2023-05-09T05:56:42;88;;;41;;
15504;SDS011;7854;52.184;5.942;2023-05-09T05:58:56;85;;;41;;
15504;SDS011;7854;52.184;5.942;2023-05-09T06:01:11;71;;;37;;
15504;SDS011;7854;52.184;5.942;2023-05-09T06:03:25;72;;;37;;
15504;SDS011;7854;52.184;5.942;2023-05-09T06:05:40;78;;;37;;
15504;SDS011;7854;52.184;5.942;2023-05-09T06:10:09;69;;;35;;
15504;SDS011;7854;52.184;5.942;2023-05-09T06:12:23;66;;;36;;
15504;SDS011;7854;52.184;5.942;2023-05-09T06:14:37;65;;;35;;
15504;SDS011;7854;52.184;5.942;2023-05-09T06:16:52;62;;;33;;
15504;SDS011;7854;52.184;5.942;2023-05-09T06:19:06;69;;;34;;
15504;SDS011;7854;52.184;5.942;2023-05-09T06:21:21;68;;;38;;
15504;SDS011;7854;52.184;5.942;2023-05-09T06:23:35;56;;;32;;
15504;SDS011;7854;52.184;5.942;2023-05-09T06:25:50;49;;;31;;
15504;SDS011;7854;52.184;5.942;2023-05-09T06:28:04;55;;;32;;
15504;SDS011;7854;52.184;5.942;2023-05-09T06:30:18;48;;;29;;
15504;SDS011;7854;52.184;5.942;2023-05-09T06:32:33;64;;;31;;
15504;SDS011;7854;52.184;5.942;2023-05-09T06:34:47;51;;;31;;
15504;SDS011;7854;52.184;5.942;2023-05-09T06:37:04;49;;;28;;
15504;SDS011;7854;52.184;5.942;2023-05-09T06:39:16;47;;;30;;
15504;SDS011;7854;52.184;5.942;2023-05-09T06:41:31;43;;;28;;
15504;SDS011;7854;52.184;5.942;2023-05-09T06:43:44;70;;;28;;
15504;SDS011;7854;52.184;5.942;2023-05-09T06:45:58;41;;;29;;
15504;SDS011;7854;52.184;5.942;2023-05-09T06:48:12;40;;;26;;
15504;SDS011;7854;52.184;5.942;2023-05-09T06:50:26;37;;;25;;
15504;SDS011;7854;52.184;5.942;2023-05-09T06:52:41;35;;;24;;
15504;SDS011;7854;52.184;5.942;2023-05-09T06:54:55;35;;;23;;
15504;SDS011;7854;52.184;5.942;2023-05-09T06:57:10;41;;;24;;
15504;SDS011;7854;52.184;5.942;2023-05-09T06:59:24;47;;;25;;
15504;SDS011;7854;52.184;5.942;2023-05-09T07:01:39;40;;;23;;
15504;SDS011;7854;52.184;5.942;2023-05-09T07:03:53;27;;;22;;
15504;SDS011;7854;52.184;5.942;2023-05-09T07:06:08;33;;;23;;
15504;SDS011;7854;52.184;5.942;2023-05-09T07:08:22;35;;;25;;
15504;SDS011;7854;52.184;5.942;2023-05-09T07:10:36;29;;;23;;
15504;SDS011;7854;52.184;5.942;2023-05-09T07:12:51;38;;;23;;
15504;SDS011;7854;52.184;5.942;2023-05-09T07:15:06;26;;;21;;
15504;SDS011;7854;52.184;5.942;2023-05-09T07:17:20;25;;;19;;
15504;SDS011;7854;52.184;5.942;2023-05-09T07:19:34;22;;;19;;
15504;SDS011;7854;52.184;5.942;2023-05-09T07:21:48;34;;;20;;
15504;SDS011;7854;52.184;5.942;2023-05-09T07:24:03;25;;;18;;
15504;SDS011;7854;52.184;5.942;2023-05-09T07:26:17;22;;;18;;
15504;SDS011;7854;52.184;5.942;2023-05-09T07:28:32;24;;;18;;
15504;SDS011;7854;52.184;5.942;2023-05-09T07:30:46;30;;;20;;
15504;SDS011;7854;52.184;5.942;2023-05-09T07:33:00;52;;;18;;
15504;SDS011;7854;52.184;5.942;2023-05-09T07:35:14;24;;;19;;
15504;SDS011;7854;52.184;5.942;2023-05-09T07:37:30;18;;;16;;
15504;SDS011;7854;52.184;5.942;2023-05-09T07:39:43;26;;;17;;
15504;SDS011;7854;52.184;5.942;2023-05-09T07:41:58;15;;;12;;
15504;SDS011;7854;52.184;5.942;2023-05-09T07:44:12;17;;;15;;
15504;SDS011;7854;52.184;5.942;2023-05-09T07:46:27;24;;;16;;
15504;SDS011;7854;52.184;5.942;2023-05-09T07:48:41;16;;;14;;
15504;SDS011;7854;52.184;5.942;2023-05-09T07:50:55;18;;;15;;
15504;SDS011;7854;52.184;5.942;2023-05-09T07:53:10;15;;;14;;
15504;SDS011;7854;52.184;5.942;2023-05-09T07:55:24;12;;;11;;
15504;SDS011;7854;52.184;5.942;2023-05-09T07:57:38;15;;;13;;
15504;SDS011;7854;52.184;5.942;2023-05-09T07:59:53;12;;;11;;
15504;SDS011;7854;52.184;5.942;2023-05-09T08:02:08;13;;;12;;
15504;SDS011;7854;52.184;5.942;2023-05-09T08:04:22;16;;;12;;
15504;SDS011;7854;52.184;5.942;2023-05-09T08:06:36;13;;;12;;
15504;SDS011;7854;52.184;5.942;2023-05-09T08:08:51;19;;;13;;
15504;SDS011;7854;52.184;5.942;2023-05-09T08:11:06;21;;;14;;
15504;SDS011;7854;52.184;5.942;2023-05-09T08:13:20;14;;;13;;
15504;SDS011;7854;52.184;5.942;2023-05-09T08:15:34;14;;;13;;
15504;SDS011;7854;52.184;5.942;2023-05-09T08:17:49;11;;;10;;
15504;SDS011;7854;52.184;5.942;2023-05-09T08:20:03;13;;;11;;
15504;SDS011;7854;52.184;5.942;2023-05-09T08:22:17;15;;;11;;
15504;SDS011;7854;52.184;5.942;2023-05-09T08:24:32;13;;;12;;
15504;SDS011;7854;52.184;5.942;2023-05-09T08:26:46;14;;;12;;
15504;SDS011;7854;52.184;5.942;2023-05-09T08:29:01;15;;;13;;
15504;SDS011;7854;52.184;5.942;2023-05-09T08:31:16;13;;;12;;
15504;SDS011;7854;52.184;5.942;2023-05-09T08:33:30;13;;;12;;
15504;SDS011;7854;52.184;5.942;2023-05-09T08:35:44;12;;;11;;
15504;SDS011;7854;52.184;5.942;2023-05-09T08:37:59;13;;;12;;
15504;SDS011;7854;52.184;5.942;2023-05-09T08:40:13;12;;;11;;
15504;SDS011;7854;52.184;5.942;2023-05-09T08:42:28;12;;;11;;
15504;SDS011;7854;52.184;5.942;2023-05-09T08:44:42;12;;;11;;
15504;SDS011;7854;52.184;5.942;2023-05-09T08:46:58;13;;;11;;
15504;SDS011;7854;52.184;5.942;2023-05-09T08:49:11;11;;;11;;
15504;SDS011;7854;52.184;5.942;2023-05-09T08:51:25;11;;;10;;
15504;SDS011;7854;52.184;5.942;2023-05-09T08:53:40;16;;;11;;
15504;SDS011;7854;52.184;5.942;2023-05-09T08:55:54;11;;;10;;
15504;SDS011;7854;52.184;5.942;2023-05-09T08:58:09;11;;;10;;
15504;SDS011;7854;52.184;5.942;2023-05-09T09:00:24;13;;;11;;
15504;SDS011;7854;52.184;5.942;2023-05-09T09:02:39;11;;;10;;
15504;SDS011;7854;52.184;5.942;2023-05-09T09:07:07;12;;;10;;
15504;SDS011;7854;52.184;5.942;2023-05-09T09:09:21;10;;;9;;
15504;SDS011;7854;52.184;5.942;2023-05-09T09:11:36;12;;;11;;
15504;SDS011;7854;52.184;5.942;2023-05-09T09:16:04;14;;;12;;
15504;SDS011;7854;52.184;5.942;2023-05-09T09:18:19;12;;;11;;
15504;SDS011;7854;52.184;5.942;2023-05-09T09:20:32;11;;;10;;
15504;SDS011;7854;52.184;5.942;2023-05-09T09:22:47;11;;;11;;
15504;SDS011;7854;52.184;5.942;2023-05-09T09:25:02;16;;;12;;
15504;SDS011;7854;52.184;5.942;2023-05-09T09:27:15;10;;;10;;
15504;SDS011;7854;52.184;5.942;2023-05-09T09:29:30;13;;;12;;
15504;SDS011;7854;52.184;5.942;2023-05-09T09:31:45;15;;;13;;
15504;SDS011;7854;52.184;5.942;2023-05-09T09:33:59;17;;;12;;
15504;SDS011;7854;52.184;5.942;2023-05-09T09:36:14;12;;;11;;
15504;SDS011;7854;52.184;5.942;2023-05-09T09:38:28;14;;;13;;
15504;SDS011;7854;52.184;5.942;2023-05-09T09:40:58;14;;;13;;
15504;SDS011;7854;52.184;5.942;2023-05-09T09:42:56;14;;;13;;
15504;SDS011;7854;52.184;5.942;2023-05-09T09:45:12;17;;;12;;
15504;SDS011;7854;52.184;5.942;2023-05-09T09:47:32;16;;;12;;
15504;SDS011;7854;52.184;5.942;2023-05-09T09:49:43;15;;;13;;
15504;SDS011;7854;52.184;5.942;2023-05-09T09:51:55;15;;;14;;
15504;SDS011;7854;52.184;5.942;2023-05-09T09:54:10;14;;;13;;
15504;SDS011;7854;52.184;5.942;2023-05-09T09:56:36;14;;;13;;
15504;SDS011;7854;52.184;5.942;2023-05-09T09:58:37;15;;;13;;
15504;SDS011;7854;52.184;5.942;2023-05-09T10:01:02;19;;;12;;
15504;SDS011;7854;52.184;5.942;2023-05-09T10:03:06;13;;;12;;
15504;SDS011;7854;52.184;5.942;2023-05-09T10:05:21;12;;;11;;
15504;SDS011;7854;52.184;5.942;2023-05-09T10:07:35;11;;;10;;
15504;SDS011;7854;52.184;5.942;2023-05-09T10:09:49;13;;;11;;
15504;SDS011;7854;52.184;5.942;2023-05-09T10:12:04;11;;;10;;
15504;SDS011;7854;52.184;5.942;2023-05-09T10:14:18;12;;;11;;
15504;SDS011;7854;52.184;5.942;2023-05-09T10:16:32;10;;;9;;
15504;SDS011;7854;52.184;5.942;2023-05-09T10:18:47;10;;;10;;
15504;SDS011;7854;52.184;5.942;2023-05-09T10:21:02;9;;;9;;
15504;SDS011;7854;52.184;5.942;2023-05-09T10:23:16;8;;;7;;
15504;SDS011;7854;52.184;5.942;2023-05-09T10:25:32;9;;;8;;
15504;SDS011;7854;52.184;5.942;2023-05-09T10:27:45;8;;;7;;
15504;SDS011;7854;52.184;5.942;2023-05-09T10:30:01;8;;;8;;
15504;SDS011;7854;52.184;5.942;2023-05-09T10:32:14;8;;;7;;
15504;SDS011;7854;52.184;5.942;2023-05-09T10:34:28;6;;;6;;
15504;SDS011;7854;52.184;5.942;2023-05-09T10:36:42;14;;;5;;
15504;SDS011;7854;52.184;5.942;2023-05-09T10:38:57;5;;;5;;
15504;SDS011;7854;52.184;5.942;2023-05-09T10:41:11;5;;;4;;
15504;SDS011;7854;52.184;5.942;2023-05-09T10:43:26;5;;;5;;
15504;SDS011;7854;52.184;5.942;2023-05-09T10:45:40;3;;;3;;
15504;SDS011;7854;52.184;5.942;2023-05-09T10:47:55;4;;;3;;
15504;SDS011;7854;52.184;5.942;2023-05-09T10:50:10;6;;;4;;
15504;SDS011;7854;52.184;5.942;2023-05-09T10:52:24;4;;;3;;
15504;SDS011;7854;52.184;5.942;2023-05-09T10:54:38;3;;;3;;
15504;SDS011;7854;52.184;5.942;2023-05-09T10:56:52;3;;;3;;
15504;SDS011;7854;52.184;5.942;2023-05-09T10:59:20;4;;;4;;
15504;SDS011;7854;52.184;5.942;2023-05-09T11:01:27;4;;;4;;
15504;SDS011;7854;52.184;5.942;2023-05-09T11:03:51;3;;;3;;
15504;SDS011;7854;52.184;5.942;2023-05-09T11:05:51;3;;;3;;
15504;SDS011;7854;52.184;5.942;2023-05-09T11:08:21;4;;;3;;
15504;SDS011;7854;52.184;5.942;2023-05-09T11:10:19;5;;;4;;
15504;SDS011;7854;52.184;5.942;2023-05-09T11:12:34;3;;;3;;
15504;SDS011;7854;52.184;5.942;2023-05-09T11:14:48;4;;;3;;
15504;SDS011;7854;52.184;5.942;2023-05-09T11:17:03;4;;;4;;
15504;SDS011;7854;52.184;5.942;2023-05-09T11:19:32;3;;;3;;
15504;SDS011;7854;52.184;5.942;2023-05-09T11:21:34;4;;;3;;
15504;SDS011;7854;52.184;5.942;2023-05-09T11:23:47;4;;;4;;
15504;SDS011;7854;52.184;5.942;2023-05-09T11:26:03;4;;;4;;
15504;SDS011;7854;52.184;5.942;2023-05-09T11:28:24;6;;;6;;
15504;SDS011;7854;52.184;5.942;2023-05-09T11:30:38;6;;;5;;
15504;SDS011;7854;52.184;5.942;2023-05-09T11:32:44;4;;;4;;
15504;SDS011;7854;52.184;5.942;2023-05-09T11:35:05;6;;;6;;
15504;SDS011;7854;52.184;5.942;2023-05-09T11:37:14;7;;;6;;
15504;SDS011;7854;52.184;5.942;2023-05-09T11:39:27;6;;;6;;
15504;SDS011;7854;52.184;5.942;2023-05-09T11:41:44;9;;;7;;
15504;SDS011;7854;52.184;5.942;2023-05-09T11:43:55;7;;;6;;
15504;SDS011;7854;52.184;5.942;2023-05-09T11:46:10;7;;;7;;
15504;SDS011;7854;52.184;5.942;2023-05-09T11:48:25;8;;;7;;
15504;SDS011;7854;52.184;5.942;2023-05-09T11:50:39;8;;;8;;
15504;SDS011;7854;52.184;5.942;2023-05-09T11:52:54;7;;;7;;
15504;SDS011;7854;52.184;5.942;2023-05-09T11:55:09;8;;;7;;
15504;SDS011;7854;52.184;5.942;2023-05-09T11:57:21;9;;;8;;
15504;SDS011;7854;52.184;5.942;2023-05-09T11:59:36;6;;;6;;
15504;SDS011;7854;52.184;5.942;2023-05-09T12:01:50;10;;;8;;
15504;SDS011;7854;52.184;5.942;2023-05-09T12:04:05;8;;;7;;
15504;SDS011;7854;52.184;5.942;2023-05-09T12:06:20;8;;;7;;
15504;SDS011;7854;52.184;5.942;2023-05-09T12:10:48;7;;;7;;
15504;SDS011;7854;52.184;5.942;2023-05-09T12:13:03;10;;;9;;
15504;SDS011;7854;52.184;5.942;2023-05-09T12:15:18;7;;;6;;
15504;SDS011;7854;52.184;5.942;2023-05-09T12:17:32;9;;;8;;
15504;SDS011;7854;52.184;5.942;2023-05-09T12:19:46;22;;;7;;
15504;SDS011;7854;52.184;5.942;2023-05-09T12:22:01;7;;;6;;
15504;SDS011;7854;52.184;5.942;2023-05-09T12:24:18;6;;;6;;
15504;SDS011;7854;52.184;5.942;2023-05-09T12:26:29;7;;;7;;
15504;SDS011;7854;52.184;5.942;2023-05-09T12:28:44;10;;;7;;
15504;SDS011;7854;52.184;5.942;2023-05-09T12:30:58;7;;;6;;
15504;SDS011;7854;52.184;5.942;2023-05-09T12:33:12;7;;;7;;
15504;SDS011;7854;52.184;5.942;2023-05-09T12:35:27;6;;;6;;
15504;SDS011;7854;52.184;5.942;2023-05-09T12:37:53;7;;;7;;
15504;SDS011;7854;52.184;5.942;2023-05-09T12:39:59;6;;;5;;
15504;SDS011;7854;52.184;5.942;2023-05-09T12:42:11;8;;;6;;
15504;SDS011;7854;52.184;5.942;2023-05-09T12:44:25;10;;;6;;
15504;SDS011;7854;52.184;5.942;2023-05-09T12:46:39;6;;;5;;
15504;SDS011;7854;52.184;5.942;2023-05-09T12:48:54;6;;;6;;
15504;SDS011;7854;52.184;5.942;2023-05-09T12:51:08;6;;;5;;
15504;SDS011;7854;52.184;5.942;2023-05-09T12:53:23;4;;;4;;
15504;SDS011;7854;52.184;5.942;2023-05-09T12:55:37;3;;;3;;
15504;SDS011;7854;52.184;5.942;2023-05-09T12:57:59;3;;;3;;
15504;SDS011;7854;52.184;5.942;2023-05-09T13:00:07;3;;;3;;
15504;SDS011;7854;52.184;5.942;2023-05-09T13:02:20;3;;;3;;
15504;SDS011;7854;52.184;5.942;2023-05-09T13:04:35;3;;;3;;
15504;SDS011;7854;52.184;5.942;2023-05-09T13:06:50;4;;;3;;
15504;SDS011;7854;52.184;5.942;2023-05-09T13:09:04;3;;;3;;
15504;SDS011;7854;52.184;5.942;2023-05-09T13:11:18;4;;;3;;
15504;SDS011;7854;52.184;5.942;2023-05-09T13:13:33;3;;;3;;
15504;SDS011;7854;52.184;5.942;2023-05-09T13:15:47;4;;;3;;
15504;SDS011;7854;52.184;5.942;2023-05-09T13:18:01;23;;;4;;
15504;SDS011;7854;52.184;5.942;2023-05-09T13:20:16;5;;;5;;
15504;SDS011;7854;52.184;5.942;2023-05-09T13:22:30;3;;;3;;
15504;SDS011;7854;52.184;5.942;2023-05-09T13:24:45;4;;;4;;
15504;SDS011;7854;52.184;5.942;2023-05-09T13:26:59;3;;;3;;
15504;SDS011;7854;52.184;5.942;2023-05-09T13:29:14;4;;;3;;
15504;SDS011;7854;52.184;5.942;2023-05-09T13:31:28;6;;;3;;
15504;SDS011;7854;52.184;5.942;2023-05-09T13:33:43;3;;;3;;
15504;SDS011;7854;52.184;5.942;2023-05-09T13:35:57;3;;;3;;
15504;SDS011;7854;52.184;5.942;2023-05-09T13:38:11;4;;;3;;
15504;SDS011;7854;52.184;5.942;2023-05-09T13:40:26;3;;;3;;
15504;SDS011;7854;52.184;5.942;2023-05-09T13:42:41;3;;;3;;
15504;SDS011;7854;52.184;5.942;2023-05-09T13:44:55;3;;;3;;
15504;SDS011;7854;52.184;5.942;2023-05-09T13:47:09;3;;;2;;
15504;SDS011;7854;52.184;5.942;2023-05-09T13:49:23;6;;;4;;
15504;SDS011;7854;52.184;5.942;2023-05-09T13:51:38;4;;;3;;
15504;SDS011;7854;52.184;5.942;2023-05-09T13:53:53;2;;;2;;
15504;SDS011;7854;52.184;5.942;2023-05-09T13:56:07;6;;;3;;
15504;SDS011;7854;52.184;5.942;2023-05-09T14:00:36;2;;;1;;
15504;SDS011;7854;52.184;5.942;2023-05-09T14:02:50;1;;;1;;
15504;SDS011;7854;52.184;5.942;2023-05-09T14:05:05;1;;;1;;
15504;SDS011;7854;52.184;5.942;2023-05-09T14:07:19;2;;;2;;
15504;SDS011;7854;52.184;5.942;2023-05-09T14:09:34;2;;;2;;
15504;SDS011;7854;52.184;5.942;2023-05-09T14:11:48;4;;;2;;
15504;SDS011;7854;52.184;5.942;2023-05-09T14:14:03;2;;;2;;
15504;SDS011;7854;52.184;5.942;2023-05-09T14:16:17;1;;;1;;
15504;SDS011;7854;52.184;5.942;2023-05-09T14:18:32;4;;;2;;
15504;SDS011;7854;52.184;5.942;2023-05-09T14:20:45;2;;;1;;
15504;SDS011;7854;52.184;5.942;2023-05-09T14:22:59;2;;;2;;
15504;SDS011;7854;52.184;5.942;2023-05-09T14:25:14;6;;;2;;
15504;SDS011;7854;52.184;5.942;2023-05-09T14:27:28;3;;;3;;
15504;SDS011;7854;52.184;5.942;2023-05-09T14:29:42;2;;;2;;
15504;SDS011;7854;52.184;5.942;2023-05-09T14:31:57;2;;;2;;
15504;SDS011;7854;52.184;5.942;2023-05-09T14:34:12;2;;;2;;
15504;SDS011;7854;52.184;5.942;2023-05-09T14:36:26;4;;;2;;
15504;SDS011;7854;52.184;5.942;2023-05-09T14:38:40;2;;;2;;
15504;SDS011;7854;52.184;5.942;2023-05-09T14:43:10;2;;;2;;
15504;SDS011;7854;52.184;5.942;2023-05-09T14:45:24;3;;;2;;
15504;SDS011;7854;52.184;5.942;2023-05-09T14:47:38;2;;;2;;
15504;SDS011;7854;52.184;5.942;2023-05-09T14:49:53;3;;;2;;
15504;SDS011;7854;52.184;5.942;2023-05-09T14:52:07;5;;;1;;
15504;SDS011;7854;52.184;5.942;2023-05-09T14:54:21;2;;;2;;
15504;SDS011;7854;52.184;5.942;2023-05-09T14:56:36;2;;;1;;